sensor_id;sensor_type;location;lat;lon;timestamp;P1;durP1;ratioP1;P2;durP2;ratioP2
60368;SDS011;46208;44.634;10.492;2023-09-08T00:03:00;4.20;;;3.10;;
60368;SDS011;46208;44.634;10.492;2023-09-08T00:06:03;3.20;;;2.90;;
60368;SDS011;46208;44.634;10.492;2023-09-08T00:09:08;3.90;;;3.50;;
60368;SDS011;46208;44.634;10.492;2023-09-08T00:12:11;3.67;;;3.05;;
60368;SDS011;46208;44.634;10.492;2023-09-08T00:15:15;3.88;;;2.97;;
60368;SDS011;46208;44.634;10.492;2023-09-08T00:18:18;7.10;;;3.30;;
60368;SDS011;46208;44.634;10.492;2023-09-08T00:21:21;4.03;;;3.13;;
60368;SDS011;46208;44.634;10.492;2023-09-08T00:24:24;3.88;;;2.92;;
60368;SDS011;46208;44.634;10.492;2023-09-08T00:27:28;3.83;;;2.95;;
60368;SDS011;46208;44.634;10.492;2023-09-08T00:30:34;4.93;;;3.10;;
60368;SDS011;46208;44.634;10.492;2023-09-08T00:33:37;3.35;;;3.03;;
60368;SDS011;46208;44.634;10.492;2023-09-08T00:36:41;4.60;;;3.72;;
60368;SDS011;46208;44.634;10.492;2023-09-08T00:39:44;3.88;;;3.53;;
60368;SDS011;46208;44.634;10.492;2023-09-08T00:42:48;3.90;;;3.50;;
60368;SDS011;46208;44.634;10.492;2023-09-08T00:45:51;3.80;;;3.50;;
60368;SDS011;46208;44.634;10.492;2023-09-08T00:48:55;4.32;;;3.90;;
60368;SDS011;46208;44.634;10.492;2023-09-08T00:51:59;5.10;;;4.10;;
60368;SDS011;46208;44.634;10.492;2023-09-08T00:55:05;6.28;;;4.30;;
60368;SDS011;46208;44.634;10.492;2023-09-08T00:58:09;4.57;;;3.90;;
60368;SDS011;46208;44.634;10.492;2023-09-08T01:01:14;5.78;;;3.50;;
60368;SDS011;46208;44.634;10.492;2023-09-08T01:04:17;3.78;;;3.47;;
60368;SDS011;46208;44.634;10.492;2023-09-08T01:07:20;3.13;;;2.83;;
60368;SDS011;46208;44.634;10.492;2023-09-08T01:10:24;3.97;;;3.40;;
60368;SDS011;46208;44.634;10.492;2023-09-08T01:13:27;6.47;;;3.38;;
60368;SDS011;46208;44.634;10.492;2023-09-08T01:16:30;3.95;;;3.58;;
60368;SDS011;46208;44.634;10.492;2023-09-08T01:19:33;3.70;;;3.10;;
60368;SDS011;46208;44.634;10.492;2023-09-08T01:26:01;5.00;;;4.00;;
60368;SDS011;46208;44.634;10.492;2023-09-08T01:29:06;6.63;;;3.40;;
60368;SDS011;46208;44.634;10.492;2023-09-08T01:32:11;3.78;;;3.17;;
60368;SDS011;46208;44.634;10.492;2023-09-08T01:35:14;3.65;;;3.35;;
60368;SDS011;46208;44.634;10.492;2023-09-08T01:38:18;3.20;;;2.90;;
60368;SDS011;46208;44.634;10.492;2023-09-08T01:41:22;4.10;;;3.40;;
60368;SDS011;46208;44.634;10.492;2023-09-08T01:44:25;4.03;;;2.88;;
60368;SDS011;46208;44.634;10.492;2023-09-08T01:47:29;5.15;;;3.58;;
60368;SDS011;46208;44.634;10.492;2023-09-08T01:50:32;3.67;;;3.13;;
60368;SDS011;46208;44.634;10.492;2023-09-08T01:53:35;3.88;;;3.17;;
60368;SDS011;46208;44.634;10.492;2023-09-08T01:56:39;3.90;;;2.70;;
60368;SDS011;46208;44.634;10.492;2023-09-08T01:59:44;3.78;;;3.38;;
60368;SDS011;46208;44.634;10.492;2023-09-08T02:02:51;2.83;;;2.57;;
60368;SDS011;46208;44.634;10.492;2023-09-08T02:05:54;3.65;;;3.13;;
60368;SDS011;46208;44.634;10.492;2023-09-08T02:08:57;3.20;;;2.90;;
60368;SDS011;46208;44.634;10.492;2023-09-08T02:12:02;4.75;;;3.00;;
60368;SDS011;46208;44.634;10.492;2023-09-08T02:15:06;3.13;;;2.60;;
60368;SDS011;46208;44.634;10.492;2023-09-08T02:18:10;3.90;;;3.17;;
60368;SDS011;46208;44.634;10.492;2023-09-08T02:21:17;3.30;;;2.90;;
60368;SDS011;46208;44.634;10.492;2023-09-08T02:24:20;3.85;;;3.28;;
60368;SDS011;46208;44.634;10.492;2023-09-08T02:27:24;5.07;;;3.17;;
60368;SDS011;46208;44.634;10.492;2023-09-08T02:30:28;4.05;;;2.97;;
60368;SDS011;46208;44.634;10.492;2023-09-08T02:33:31;4.80;;;3.30;;
60368;SDS011;46208;44.634;10.492;2023-09-08T02:36:35;3.35;;;2.85;;
60368;SDS011;46208;44.634;10.492;2023-09-08T02:39:39;4.03;;;3.10;;
60368;SDS011;46208;44.634;10.492;2023-09-08T02:42:43;2.60;;;2.40;;
60368;SDS011;46208;44.634;10.492;2023-09-08T02:45:46;4.80;;;3.20;;
60368;SDS011;46208;44.634;10.492;2023-09-08T02:48:51;3.60;;;3.15;;
60368;SDS011;46208;44.634;10.492;2023-09-08T02:51:56;3.60;;;3.13;;
60368;SDS011;46208;44.634;10.492;2023-09-08T02:54:59;3.50;;;3.20;;
60368;SDS011;46208;44.634;10.492;2023-09-08T02:58:02;4.03;;;3.13;;
60368;SDS011;46208;44.634;10.492;2023-09-08T03:04:16;3.28;;;2.95;;
60368;SDS011;46208;44.634;10.492;2023-09-08T03:07:19;4.13;;;3.13;;
60368;SDS011;46208;44.634;10.492;2023-09-08T03:10:22;3.90;;;3.50;;
60368;SDS011;46208;44.634;10.492;2023-09-08T03:13:25;4.00;;;2.90;;
60368;SDS011;46208;44.634;10.492;2023-09-08T03:16:29;3.58;;;2.95;;
60368;SDS011;46208;44.634;10.492;2023-09-08T03:19:32;3.40;;;3.10;;
60368;SDS011;46208;44.634;10.492;2023-09-08T03:22:35;4.70;;;2.75;;
60368;SDS011;46208;44.634;10.492;2023-09-08T03:25:38;3.67;;;3.13;;
60368;SDS011;46208;44.634;10.492;2023-09-08T03:28:42;3.65;;;2.97;;
60368;SDS011;46208;44.634;10.492;2023-09-08T03:31:46;4.50;;;2.92;;
60368;SDS011;46208;44.634;10.492;2023-09-08T03:34:50;3.10;;;2.80;;
60368;SDS011;46208;44.634;10.492;2023-09-08T03:37:53;3.28;;;2.97;;
60368;SDS011;46208;44.634;10.492;2023-09-08T03:40:56;3.13;;;2.80;;
60368;SDS011;46208;44.634;10.492;2023-09-08T03:44:01;4.28;;;3.05;;
60368;SDS011;46208;44.634;10.492;2023-09-08T03:47:05;3.65;;;3.13;;
60368;SDS011;46208;44.634;10.492;2023-09-08T03:50:09;4.28;;;3.25;;
60368;SDS011;46208;44.634;10.492;2023-09-08T03:53:13;4.97;;;3.30;;
60368;SDS011;46208;44.634;10.492;2023-09-08T03:56:16;4.85;;;3.30;;
60368;SDS011;46208;44.634;10.492;2023-09-08T03:59:20;3.92;;;3.28;;
60368;SDS011;46208;44.634;10.492;2023-09-08T04:02:23;5.28;;;3.58;;
60368;SDS011;46208;44.634;10.492;2023-09-08T04:05:27;3.78;;;3.30;;
60368;SDS011;46208;44.634;10.492;2023-09-08T04:08:30;6.65;;;3.70;;
60368;SDS011;46208;44.634;10.492;2023-09-08T04:11:34;3.97;;;3.33;;
60368;SDS011;46208;44.634;10.492;2023-09-08T04:14:37;4.47;;;3.38;;
60368;SDS011;46208;44.634;10.492;2023-09-08T04:17:41;3.50;;;3.20;;
60368;SDS011;46208;44.634;10.492;2023-09-08T04:20:44;3.53;;;3.20;;
60368;SDS011;46208;44.634;10.492;2023-09-08T04:23:48;5.63;;;3.17;;
60368;SDS011;46208;44.634;10.492;2023-09-08T04:26:52;4.70;;;3.20;;
60368;SDS011;46208;44.634;10.492;2023-09-08T04:29:55;3.42;;;3.00;;
60368;SDS011;46208;44.634;10.492;2023-09-08T04:32:59;3.38;;;2.90;;
60368;SDS011;46208;44.634;10.492;2023-09-08T04:36:02;4.45;;;3.88;;
60368;SDS011;46208;44.634;10.492;2023-09-08T04:39:06;4.18;;;3.78;;
60368;SDS011;46208;44.634;10.492;2023-09-08T04:42:12;3.63;;;2.90;;
60368;SDS011;46208;44.634;10.492;2023-09-08T04:45:17;4.13;;;3.38;;
60368;SDS011;46208;44.634;10.492;2023-09-08T04:48:20;3.97;;;2.88;;
60368;SDS011;46208;44.634;10.492;2023-09-08T04:51:24;3.72;;;3.38;;
60368;SDS011;46208;44.634;10.492;2023-09-08T04:54:27;5.03;;;3.35;;
60368;SDS011;46208;44.634;10.492;2023-09-08T04:57:33;4.50;;;3.15;;
60368;SDS011;46208;44.634;10.492;2023-09-08T05:00:40;5.60;;;3.72;;
60368;SDS011;46208;44.634;10.492;2023-09-08T05:03:44;5.93;;;3.55;;
60368;SDS011;46208;44.634;10.492;2023-09-08T05:06:47;4.80;;;3.40;;
60368;SDS011;46208;44.634;10.492;2023-09-08T05:09:53;3.83;;;3.13;;
60368;SDS011;46208;44.634;10.492;2023-09-08T05:12:56;3.80;;;2.90;;
60368;SDS011;46208;44.634;10.492;2023-09-08T05:16:01;4.18;;;3.80;;
60368;SDS011;46208;44.634;10.492;2023-09-08T05:19:14;3.22;;;2.92;;
60368;SDS011;46208;44.634;10.492;2023-09-08T05:22:18;3.80;;;3.08;;
60368;SDS011;46208;44.634;10.492;2023-09-08T05:25:21;4.53;;;3.20;;
60368;SDS011;46208;44.634;10.492;2023-09-08T05:28:25;5.35;;;3.55;;
60368;SDS011;46208;44.634;10.492;2023-09-08T05:31:29;3.67;;;3.38;;
60368;SDS011;46208;44.634;10.492;2023-09-08T05:34:33;3.42;;;3.13;;
60368;SDS011;46208;44.634;10.492;2023-09-08T05:37:36;4.97;;;3.42;;
60368;SDS011;46208;44.634;10.492;2023-09-08T05:40:40;3.63;;;3.17;;
60368;SDS011;46208;44.634;10.492;2023-09-08T05:43:44;3.83;;;2.97;;
60368;SDS011;46208;44.634;10.492;2023-09-08T05:46:48;3.95;;;3.10;;
60368;SDS011;46208;44.634;10.492;2023-09-08T05:49:52;4.95;;;3.00;;
60368;SDS011;46208;44.634;10.492;2023-09-08T05:52:55;4.45;;;3.33;;
60368;SDS011;46208;44.634;10.492;2023-09-08T05:56:00;3.78;;;3.22;;
60368;SDS011;46208;44.634;10.492;2023-09-08T05:59:03;3.92;;;3.30;;
60368;SDS011;46208;44.634;10.492;2023-09-08T06:02:07;4.35;;;3.60;;
60368;SDS011;46208;44.634;10.492;2023-09-08T06:05:10;3.75;;;3.30;;
60368;SDS011;46208;44.634;10.492;2023-09-08T06:08:14;3.97;;;3.10;;
60368;SDS011;46208;44.634;10.492;2023-09-08T06:11:19;4.15;;;3.20;;
60368;SDS011;46208;44.634;10.492;2023-09-08T06:14:23;4.57;;;3.63;;
60368;SDS011;46208;44.634;10.492;2023-09-08T06:17:27;4.47;;;3.75;;
60368;SDS011;46208;44.634;10.492;2023-09-08T06:20:31;7.07;;;4.20;;
60368;SDS011;46208;44.634;10.492;2023-09-08T06:23:35;3.90;;;3.50;;
60368;SDS011;46208;44.634;10.492;2023-09-08T06:26:39;8.40;;;4.50;;
60368;SDS011;46208;44.634;10.492;2023-09-08T06:29:42;7.25;;;4.47;;
60368;SDS011;46208;44.634;10.492;2023-09-08T06:32:49;6.30;;;4.78;;
60368;SDS011;46208;44.634;10.492;2023-09-08T06:35:52;8.02;;;4.95;;
60368;SDS011;46208;44.634;10.492;2023-09-08T06:38:57;5.90;;;4.30;;
60368;SDS011;46208;44.634;10.492;2023-09-08T06:42:01;8.55;;;5.13;;
60368;SDS011;46208;44.634;10.492;2023-09-08T06:45:04;6.95;;;4.97;;
60368;SDS011;46208;44.634;10.492;2023-09-08T06:48:08;6.25;;;3.97;;
60368;SDS011;46208;44.634;10.492;2023-09-08T06:51:11;4.97;;;4.47;;
60368;SDS011;46208;44.634;10.492;2023-09-08T06:54:16;6.18;;;4.13;;
60368;SDS011;46208;44.634;10.492;2023-09-08T06:57:21;6.95;;;3.67;;
60368;SDS011;46208;44.634;10.492;2023-09-08T07:00:24;4.63;;;4.07;;
60368;SDS011;46208;44.634;10.492;2023-09-08T07:03:29;7.38;;;4.28;;
60368;SDS011;46208;44.634;10.492;2023-09-08T07:06:40;5.43;;;4.55;;
60368;SDS011;46208;44.634;10.492;2023-09-08T07:09:47;4.90;;;4.43;;
60368;SDS011;46208;44.634;10.492;2023-09-08T07:12:51;5.82;;;5.05;;
60368;SDS011;46208;44.634;10.492;2023-09-08T07:15:55;5.13;;;4.00;;
60368;SDS011;46208;44.634;10.492;2023-09-08T07:18:58;6.32;;;4.50;;
60368;SDS011;46208;44.634;10.492;2023-09-08T07:22:04;8.20;;;4.50;;
60368;SDS011;46208;44.634;10.492;2023-09-08T07:25:07;5.53;;;4.18;;
60368;SDS011;46208;44.634;10.492;2023-09-08T07:28:14;5.13;;;4.32;;
60368;SDS011;46208;44.634;10.492;2023-09-08T07:31:17;6.30;;;4.68;;
60368;SDS011;46208;44.634;10.492;2023-09-08T07:34:24;7.32;;;4.53;;
60368;SDS011;46208;44.634;10.492;2023-09-08T07:37:26;7.03;;;4.55;;
60368;SDS011;46208;44.634;10.492;2023-09-08T07:40:31;5.57;;;4.35;;
60368;SDS011;46208;44.634;10.492;2023-09-08T07:43:35;5.32;;;4.15;;
60368;SDS011;46208;44.634;10.492;2023-09-08T07:46:43;4.43;;;3.67;;
60368;SDS011;46208;44.634;10.492;2023-09-08T07:49:49;7.65;;;4.15;;
60368;SDS011;46208;44.634;10.492;2023-09-08T07:52:53;5.45;;;3.90;;
60368;SDS011;46208;44.634;10.492;2023-09-08T07:55:57;6.40;;;3.90;;
60368;SDS011;46208;44.634;10.492;2023-09-08T07:59:00;6.75;;;3.70;;
60368;SDS011;46208;44.634;10.492;2023-09-08T08:02:03;4.78;;;3.70;;
60368;SDS011;46208;44.634;10.492;2023-09-08T08:05:07;4.35;;;3.53;;
60368;SDS011;46208;44.634;10.492;2023-09-08T08:08:10;5.45;;;3.85;;
60368;SDS011;46208;44.634;10.492;2023-09-08T08:11:14;6.43;;;4.00;;
60368;SDS011;46208;44.634;10.492;2023-09-08T08:14:18;4.70;;;3.45;;
60368;SDS011;46208;44.634;10.492;2023-09-08T08:17:21;9.13;;;3.92;;
60368;SDS011;46208;44.634;10.492;2023-09-08T08:20:25;6.93;;;3.55;;
60368;SDS011;46208;44.634;10.492;2023-09-08T08:23:28;3.78;;;3.10;;
60368;SDS011;46208;44.634;10.492;2023-09-08T08:26:31;5.07;;;3.03;;
60368;SDS011;46208;44.634;10.492;2023-09-08T08:29:36;3.50;;;3.17;;
60368;SDS011;46208;44.634;10.492;2023-09-08T08:32:39;4.07;;;3.63;;
60368;SDS011;46208;44.634;10.492;2023-09-08T08:35:49;6.63;;;3.38;;
60368;SDS011;46208;44.634;10.492;2023-09-08T08:38:53;3.80;;;3.17;;
60368;SDS011;46208;44.634;10.492;2023-09-08T08:41:56;3.80;;;3.13;;
60368;SDS011;46208;44.634;10.492;2023-09-08T08:45:00;4.43;;;3.42;;
60368;SDS011;46208;44.634;10.492;2023-09-08T08:48:03;3.55;;;2.90;;
60368;SDS011;46208;44.634;10.492;2023-09-08T08:51:08;4.40;;;3.30;;
60368;SDS011;46208;44.634;10.492;2023-09-08T08:54:12;5.10;;;3.10;;
60368;SDS011;46208;44.634;10.492;2023-09-08T08:57:16;3.40;;;2.88;;
60368;SDS011;46208;44.634;10.492;2023-09-08T09:00:20;3.85;;;3.30;;
60368;SDS011;46208;44.634;10.492;2023-09-08T09:03:26;4.63;;;3.25;;
60368;SDS011;46208;44.634;10.492;2023-09-08T09:06:32;4.65;;;3.10;;
60368;SDS011;46208;44.634;10.492;2023-09-08T09:09:36;4.97;;;2.90;;
60368;SDS011;46208;44.634;10.492;2023-09-08T09:12:40;3.92;;;2.92;;
60368;SDS011;46208;44.634;10.492;2023-09-08T09:15:43;5.13;;;3.40;;
60368;SDS011;46208;44.634;10.492;2023-09-08T09:18:53;4.90;;;2.65;;
60368;SDS011;46208;44.634;10.492;2023-09-08T09:21:57;3.55;;;3.03;;
60368;SDS011;46208;44.634;10.492;2023-09-08T09:25:00;3.25;;;2.90;;
60368;SDS011;46208;44.634;10.492;2023-09-08T09:28:03;4.53;;;2.88;;
60368;SDS011;46208;44.634;10.492;2023-09-08T09:31:08;3.67;;;2.55;;
60368;SDS011;46208;44.634;10.492;2023-09-08T09:34:11;5.40;;;3.67;;
60368;SDS011;46208;44.634;10.492;2023-09-08T09:37:14;3.65;;;2.80;;
60368;SDS011;46208;44.634;10.492;2023-09-08T09:40:17;6.22;;;2.95;;
60368;SDS011;46208;44.634;10.492;2023-09-08T09:43:21;3.28;;;2.78;;
60368;SDS011;46208;44.634;10.492;2023-09-08T09:46:27;3.05;;;2.75;;
60368;SDS011;46208;44.634;10.492;2023-09-08T09:49:31;3.20;;;2.50;;
60368;SDS011;46208;44.634;10.492;2023-09-08T09:52:35;4.63;;;2.55;;
60368;SDS011;46208;44.634;10.492;2023-09-08T09:55:43;3.47;;;2.92;;
60368;SDS011;46208;44.634;10.492;2023-09-08T09:58:47;3.13;;;2.53;;
60368;SDS011;46208;44.634;10.492;2023-09-08T10:01:51;3.88;;;2.92;;
60368;SDS011;46208;44.634;10.492;2023-09-08T10:04:55;3.22;;;2.72;;
60368;SDS011;46208;44.634;10.492;2023-09-08T10:07:58;3.90;;;2.90;;
60368;SDS011;46208;44.634;10.492;2023-09-08T10:11:02;3.72;;;2.92;;
60368;SDS011;46208;44.634;10.492;2023-09-08T10:14:06;3.25;;;2.85;;
60368;SDS011;46208;44.634;10.492;2023-09-08T10:17:21;3.40;;;2.60;;
60368;SDS011;46208;44.634;10.492;2023-09-08T10:20:28;3.33;;;2.90;;
60368;SDS011;46208;44.634;10.492;2023-09-08T10:23:41;4.07;;;3.03;;
60368;SDS011;46208;44.634;10.492;2023-09-08T10:26:47;3.55;;;3.00;;
60368;SDS011;46208;44.634;10.492;2023-09-08T10:29:55;4.88;;;3.10;;
60368;SDS011;46208;44.634;10.492;2023-09-08T10:32:58;3.08;;;2.67;;
60368;SDS011;46208;44.634;10.492;2023-09-08T10:36:02;3.15;;;2.67;;
60368;SDS011;46208;44.634;10.492;2023-09-08T10:39:27;5.15;;;3.03;;
60368;SDS011;46208;44.634;10.492;2023-09-08T10:42:32;4.20;;;3.33;;
60368;SDS011;46208;44.634;10.492;2023-09-08T10:45:36;4.10;;;3.10;;
60368;SDS011;46208;44.634;10.492;2023-09-08T10:48:45;4.78;;;3.75;;
60368;SDS011;46208;44.634;10.492;2023-09-08T10:51:49;3.17;;;2.88;;
60368;SDS011;46208;44.634;10.492;2023-09-08T10:54:53;3.50;;;2.90;;
60368;SDS011;46208;44.634;10.492;2023-09-08T10:57:56;5.25;;;3.15;;
60368;SDS011;46208;44.634;10.492;2023-09-08T11:01:00;4.00;;;3.42;;
60368;SDS011;46208;44.634;10.492;2023-09-08T11:04:04;4.07;;;3.00;;
60368;SDS011;46208;44.634;10.492;2023-09-08T11:07:11;5.88;;;2.70;;
60368;SDS011;46208;44.634;10.492;2023-09-08T11:10:14;3.22;;;2.83;;
60368;SDS011;46208;44.634;10.492;2023-09-08T11:13:17;2.80;;;2.60;;
60368;SDS011;46208;44.634;10.492;2023-09-08T11:16:21;3.50;;;3.17;;
60368;SDS011;46208;44.634;10.492;2023-09-08T11:19:46;3.00;;;2.72;;
60368;SDS011;46208;44.634;10.492;2023-09-08T11:22:50;3.53;;;2.80;;
60368;SDS011;46208;44.634;10.492;2023-09-08T11:25:53;2.95;;;2.65;;
60368;SDS011;46208;44.634;10.492;2023-09-08T11:28:57;4.38;;;3.10;;
60368;SDS011;46208;44.634;10.492;2023-09-08T11:32:00;4.75;;;3.28;;
60368;SDS011;46208;44.634;10.492;2023-09-08T11:35:05;3.50;;;2.97;;
60368;SDS011;46208;44.634;10.492;2023-09-08T11:38:12;3.47;;;2.90;;
60368;SDS011;46208;44.634;10.492;2023-09-08T11:41:16;4.78;;;3.17;;
60368;SDS011;46208;44.634;10.492;2023-09-08T11:44:20;5.00;;;2.85;;
60368;SDS011;46208;44.634;10.492;2023-09-08T11:47:23;3.78;;;2.80;;
60368;SDS011;46208;44.634;10.492;2023-09-08T11:50:29;3.22;;;2.85;;
60368;SDS011;46208;44.634;10.492;2023-09-08T11:53:34;3.08;;;2.75;;
60368;SDS011;46208;44.634;10.492;2023-09-08T11:56:38;3.38;;;3.08;;
60368;SDS011;46208;44.634;10.492;2023-09-08T11:59:44;3.72;;;3.33;;
60368;SDS011;46208;44.634;10.492;2023-09-08T12:02:52;4.18;;;3.22;;
60368;SDS011;46208;44.634;10.492;2023-09-08T12:05:56;4.82;;;2.67;;
60368;SDS011;46208;44.634;10.492;2023-09-08T12:09:03;3.63;;;3.00;;
60368;SDS011;46208;44.634;10.492;2023-09-08T12:12:11;3.65;;;3.35;;
60368;SDS011;46208;44.634;10.492;2023-09-08T12:15:30;4.53;;;3.15;;
60368;SDS011;46208;44.634;10.492;2023-09-08T12:18:38;3.63;;;2.65;;
60368;SDS011;46208;44.634;10.492;2023-09-08T12:21:56;3.72;;;2.72;;
60368;SDS011;46208;44.634;10.492;2023-09-08T12:25:00;3.53;;;3.15;;
60368;SDS011;46208;44.634;10.492;2023-09-08T12:28:06;3.28;;;2.97;;
60368;SDS011;46208;44.634;10.492;2023-09-08T12:31:10;3.40;;;3.10;;
60368;SDS011;46208;44.634;10.492;2023-09-08T12:34:14;3.30;;;3.00;;
60368;SDS011;46208;44.634;10.492;2023-09-08T12:37:22;5.00;;;3.00;;
60368;SDS011;46208;44.634;10.492;2023-09-08T12:40:26;3.60;;;3.15;;
60368;SDS011;46208;44.634;10.492;2023-09-08T12:43:30;3.50;;;3.03;;
60368;SDS011;46208;44.634;10.492;2023-09-08T12:46:34;4.05;;;3.10;;
60368;SDS011;46208;44.634;10.492;2023-09-08T12:49:39;3.67;;;2.97;;
60368;SDS011;46208;44.634;10.492;2023-09-08T12:52:43;3.85;;;2.67;;
60368;SDS011;46208;44.634;10.492;2023-09-08T12:55:48;3.05;;;2.85;;
60368;SDS011;46208;44.634;10.492;2023-09-08T12:58:52;3.17;;;2.80;;
60368;SDS011;46208;44.634;10.492;2023-09-08T13:01:56;4.70;;;2.88;;
60368;SDS011;46208;44.634;10.492;2023-09-08T13:05:02;3.25;;;2.95;;
60368;SDS011;46208;44.634;10.492;2023-09-08T13:08:07;3.15;;;2.85;;
60368;SDS011;46208;44.634;10.492;2023-09-08T13:11:12;2.88;;;2.67;;
60368;SDS011;46208;44.634;10.492;2023-09-08T13:14:16;5.22;;;3.15;;
60368;SDS011;46208;44.634;10.492;2023-09-08T13:17:20;3.88;;;3.13;;
60368;SDS011;46208;44.634;10.492;2023-09-08T13:20:24;4.72;;;3.53;;
60368;SDS011;46208;44.634;10.492;2023-09-08T13:23:28;3.75;;;3.10;;
60368;SDS011;46208;44.634;10.492;2023-09-08T13:26:34;4.63;;;3.17;;
60368;SDS011;46208;44.634;10.492;2023-09-08T13:29:37;3.63;;;3.20;;
60368;SDS011;46208;44.634;10.492;2023-09-08T13:32:41;4.60;;;3.20;;
60368;SDS011;46208;44.634;10.492;2023-09-08T13:35:45;3.33;;;3.03;;
60368;SDS011;46208;44.634;10.492;2023-09-08T13:38:49;4.68;;;3.22;;
60368;SDS011;46208;44.634;10.492;2023-09-08T13:41:54;3.03;;;2.75;;
60368;SDS011;46208;44.634;10.492;2023-09-08T13:44:58;3.78;;;3.08;;
60368;SDS011;46208;44.634;10.492;2023-09-08T13:48:03;4.03;;;3.05;;
60368;SDS011;46208;44.634;10.492;2023-09-08T13:51:09;2.88;;;2.67;;
60368;SDS011;46208;44.634;10.492;2023-09-08T13:54:14;3.85;;;3.45;;
60368;SDS011;46208;44.634;10.492;2023-09-08T13:57:19;3.58;;;2.92;;
60368;SDS011;46208;44.634;10.492;2023-09-08T14:00:25;3.15;;;2.88;;
60368;SDS011;46208;44.634;10.492;2023-09-08T14:03:29;3.95;;;3.38;;
60368;SDS011;46208;44.634;10.492;2023-09-08T14:06:34;4.38;;;3.58;;
60368;SDS011;46208;44.634;10.492;2023-09-08T14:09:38;4.20;;;3.42;;
60368;SDS011;46208;44.634;10.492;2023-09-08T14:12:41;3.55;;;3.22;;
60368;SDS011;46208;44.634;10.492;2023-09-08T14:15:45;6.30;;;3.40;;
60368;SDS011;46208;44.634;10.492;2023-09-08T14:18:50;4.15;;;3.05;;
60368;SDS011;46208;44.634;10.492;2023-09-08T14:21:54;3.55;;;3.22;;
60368;SDS011;46208;44.634;10.492;2023-09-08T14:24:58;5.85;;;3.75;;
60368;SDS011;46208;44.634;10.492;2023-09-08T14:28:02;3.50;;;3.20;;
60368;SDS011;46208;44.634;10.492;2023-09-08T14:31:07;3.60;;;3.30;;
60368;SDS011;46208;44.634;10.492;2023-09-08T14:34:10;4.15;;;3.45;;
60368;SDS011;46208;44.634;10.492;2023-09-08T14:37:15;3.75;;;3.40;;
60368;SDS011;46208;44.634;10.492;2023-09-08T14:40:18;4.82;;;3.55;;
60368;SDS011;46208;44.634;10.492;2023-09-08T14:43:22;4.10;;;3.78;;
60368;SDS011;46208;44.634;10.492;2023-09-08T14:46:26;4.40;;;3.40;;
60368;SDS011;46208;44.634;10.492;2023-09-08T14:49:30;4.05;;;3.45;;
60368;SDS011;46208;44.634;10.492;2023-09-08T14:52:34;4.07;;;3.42;;
60368;SDS011;46208;44.634;10.492;2023-09-08T14:55:38;5.05;;;3.40;;
60368;SDS011;46208;44.634;10.492;2023-09-08T14:58:43;4.90;;;4.28;;
60368;SDS011;46208;44.634;10.492;2023-09-08T15:01:46;4.22;;;3.80;;
60368;SDS011;46208;44.634;10.492;2023-09-08T15:04:52;5.25;;;3.28;;
60368;SDS011;46208;44.634;10.492;2023-09-08T15:07:56;4.45;;;4.05;;
60368;SDS011;46208;44.634;10.492;2023-09-08T15:11:00;5.72;;;3.30;;
60368;SDS011;46208;44.634;10.492;2023-09-08T15:14:04;4.43;;;3.50;;
60368;SDS011;46208;44.634;10.492;2023-09-08T15:17:10;4.50;;;3.22;;
60368;SDS011;46208;44.634;10.492;2023-09-08T15:20:14;3.63;;;3.33;;
60368;SDS011;46208;44.634;10.492;2023-09-08T15:23:18;5.82;;;3.58;;
60368;SDS011;46208;44.634;10.492;2023-09-08T15:26:22;4.07;;;3.67;;
60368;SDS011;46208;44.634;10.492;2023-09-08T15:29:27;4.38;;;3.70;;
60368;SDS011;46208;44.634;10.492;2023-09-08T15:32:32;5.07;;;3.28;;
60368;SDS011;46208;44.634;10.492;2023-09-08T15:35:36;4.45;;;3.15;;
60368;SDS011;46208;44.634;10.492;2023-09-08T15:38:40;4.10;;;3.63;;
60368;SDS011;46208;44.634;10.492;2023-09-08T15:41:43;6.47;;;4.00;;
60368;SDS011;46208;44.634;10.492;2023-09-08T15:44:47;3.40;;;2.92;;
60368;SDS011;46208;44.634;10.492;2023-09-08T15:47:51;3.58;;;3.28;;
60368;SDS011;46208;44.634;10.492;2023-09-08T15:50:54;4.75;;;3.83;;
60368;SDS011;46208;44.634;10.492;2023-09-08T15:53:58;4.88;;;3.53;;
60368;SDS011;46208;44.634;10.492;2023-09-08T15:57:01;6.05;;;3.92;;
60368;SDS011;46208;44.634;10.492;2023-09-08T16:00:07;4.57;;;3.72;;
60368;SDS011;46208;44.634;10.492;2023-09-08T16:03:12;3.40;;;3.10;;
60368;SDS011;46208;44.634;10.492;2023-09-08T16:06:16;3.92;;;3.47;;
60368;SDS011;46208;44.634;10.492;2023-09-08T16:09:22;4.07;;;3.60;;
60368;SDS011;46208;44.634;10.492;2023-09-08T16:12:26;3.63;;;3.20;;
60368;SDS011;46208;44.634;10.492;2023-09-08T16:15:31;3.63;;;3.22;;
60368;SDS011;46208;44.634;10.492;2023-09-08T16:18:35;5.63;;;3.60;;
60368;SDS011;46208;44.634;10.492;2023-09-08T16:21:40;4.63;;;3.13;;
60368;SDS011;46208;44.634;10.492;2023-09-08T16:24:45;4.72;;;3.45;;
60368;SDS011;46208;44.634;10.492;2023-09-08T16:27:49;5.03;;;3.45;;
60368;SDS011;46208;44.634;10.492;2023-09-08T16:30:54;4.38;;;3.95;;
60368;SDS011;46208;44.634;10.492;2023-09-08T16:33:58;4.38;;;3.42;;
60368;SDS011;46208;44.634;10.492;2023-09-08T16:37:02;3.95;;;3.53;;
60368;SDS011;46208;44.634;10.492;2023-09-08T16:40:06;8.52;;;4.72;;
60368;SDS011;46208;44.634;10.492;2023-09-08T16:43:10;3.80;;;3.30;;
60368;SDS011;46208;44.634;10.492;2023-09-08T16:46:14;4.50;;;3.08;;
60368;SDS011;46208;44.634;10.492;2023-09-08T16:49:18;3.97;;;3.22;;
60368;SDS011;46208;44.634;10.492;2023-09-08T16:52:21;4.90;;;3.42;;
60368;SDS011;46208;44.634;10.492;2023-09-08T16:55:26;4.28;;;3.33;;
60368;SDS011;46208;44.634;10.492;2023-09-08T16:58:30;6.47;;;3.13;;
60368;SDS011;46208;44.634;10.492;2023-09-08T17:01:36;5.03;;;3.50;;
60368;SDS011;46208;44.634;10.492;2023-09-08T17:04:39;3.40;;;3.10;;
60368;SDS011;46208;44.634;10.492;2023-09-08T17:07:46;3.92;;;3.58;;
60368;SDS011;46208;44.634;10.492;2023-09-08T17:10:50;5.35;;;3.30;;
60368;SDS011;46208;44.634;10.492;2023-09-08T17:13:53;3.65;;;3.35;;
60368;SDS011;46208;44.634;10.492;2023-09-08T17:16:56;4.05;;;3.75;;
60368;SDS011;46208;44.634;10.492;2023-09-08T17:20:00;4.60;;;3.35;;
60368;SDS011;46208;44.634;10.492;2023-09-08T17:23:05;3.78;;;3.38;;
60368;SDS011;46208;44.634;10.492;2023-09-08T17:26:09;5.15;;;3.47;;
60368;SDS011;46208;44.634;10.492;2023-09-08T17:29:13;4.57;;;3.65;;
60368;SDS011;46208;44.634;10.492;2023-09-08T17:32:17;5.10;;;3.97;;
60368;SDS011;46208;44.634;10.492;2023-09-08T17:35:20;7.68;;;3.88;;
60368;SDS011;46208;44.634;10.492;2023-09-08T17:38:23;6.22;;;3.50;;
60368;SDS011;46208;44.634;10.492;2023-09-08T17:41:26;5.32;;;3.78;;
60368;SDS011;46208;44.634;10.492;2023-09-08T17:44:29;5.05;;;3.97;;
60368;SDS011;46208;44.634;10.492;2023-09-08T17:47:32;5.95;;;3.40;;
60368;SDS011;46208;44.634;10.492;2023-09-08T17:50:36;4.65;;;3.97;;
60368;SDS011;46208;44.634;10.492;2023-09-08T17:53:40;5.07;;;3.97;;
60368;SDS011;46208;44.634;10.492;2023-09-08T17:56:43;6.35;;;4.00;;
60368;SDS011;46208;44.634;10.492;2023-09-08T17:59:46;4.00;;;3.58;;
60368;SDS011;46208;44.634;10.492;2023-09-08T18:02:49;5.95;;;3.60;;
60368;SDS011;46208;44.634;10.492;2023-09-08T18:05:53;4.57;;;4.03;;
60368;SDS011;46208;44.634;10.492;2023-09-08T18:08:56;5.07;;;4.03;;
60368;SDS011;46208;44.634;10.492;2023-09-08T18:12:00;5.15;;;4.03;;
60368;SDS011;46208;44.634;10.492;2023-09-08T18:15:04;4.50;;;3.38;;
60368;SDS011;46208;44.634;10.492;2023-09-08T18:18:08;4.47;;;4.00;;
60368;SDS011;46208;44.634;10.492;2023-09-08T18:21:11;4.88;;;3.85;;